CheckWX is a tool to help pilots better visualize weather data.  It is not intended as a substitute for an official pre-flight weather briefing.

02:30:58 UTC

CYQF TAF
Red Deer Regional Airport
Red Deer, Canada
TAF CYQF 222338Z 2300/2312 25005KT P6SM FEW080 FM230300 20005KT P6SM SKC RMK NXT FCST BY 230600Z

Jan-23@
00:00 UTC

Jan-23 @ 00:00 UTC

Jan-23@
03:00 UTC

Jan-23 @ 03:00 UTC

TAF CYQF 222338Z 2300/2312 25005KT P6SM FEW080
Wind
  • 250° at 5 KTS
Cloud Levels
  • Few at 8,000' AGL

Jan-23@
03:00 UTC

Jan-23 @ 03:00 UTC

Jan-23@
12:00 UTC

Jan-23 @ 12:00 UTC

FM230300 20005KT P6SM SKC RMK NXT FCST BY 230600Z

From

From Standard forecast or significant change

Wind
  • 200° at 5 KTS
Cloud Levels
  • Clear skies